DGHMT EDFZ-EDXW
Flight info
| Callsign | DGHMT |
|---|---|
| Flight time | 2h 6m |
| Altitude | 7000 |
| Route | RUDUS Z10 GISEM DCT WRB/N0196F060 N850 ESTAD DCT ELSOB DCT OLDIP |
| Aircraft | BE58/L-SDFGRY/C |
Departure
| Time | 2026-05-07 17:41 |
|---|---|
| Airport | Mainz-Finthen Airfield (EDFZ) |
Arrival
| Time | 2026-05-07 19:47 |
|---|---|
| Airport | Westerland Sylt Airport (EDXW) |
| Time | Latitude | Longitude | Altitude | Speed | Heading |
|---|---|---|---|---|---|
| 2026-05-07 17:07 | 49.97233 | 8.15099 | 732 ft | 0 kts | 251° |
| 2026-05-07 17:30 | 49.97232 | 8.15094 | 734 ft | 4 kts | 251° |
| 2026-05-07 17:31 | 49.97207 | 8.15088 | 736 ft | 5 kts | 118° |
| 2026-05-07 17:31 | 49.97170 | 8.15139 | 740 ft | 9 kts | 144° |
| 2026-05-07 17:31 | 49.97127 | 8.15179 | 745 ft | 3 kts | 203° |
| 2026-05-07 17:31 | 49.97120 | 8.15113 | 744 ft | 10 kts | 253° |
| 2026-05-07 17:32 | 49.97109 | 8.15047 | 744 ft | 9 kts | 256° |
| 2026-05-07 17:32 | 49.97088 | 8.14918 | 745 ft | 16 kts | 253° |
| 2026-05-07 17:32 | 49.97056 | 8.14746 | 748 ft | 10 kts | 251° |
| 2026-05-07 17:32 | 49.97042 | 8.14673 | 750 ft | 7 kts | 255° |
| 2026-05-07 17:33 | 49.97022 | 8.14558 | 750 ft | 12 kts | 255° |
| 2026-05-07 17:33 | 49.97009 | 8.14482 | 754 ft | 6 kts | 253° |
| 2026-05-07 17:33 | 49.96992 | 8.14390 | 754 ft | 7 kts | 258° |
| 2026-05-07 17:33 | 49.96980 | 8.14320 | 755 ft | 10 kts | 255° |
| 2026-05-07 17:34 | 49.96965 | 8.14232 | 756 ft | 8 kts | 255° |
| 2026-05-07 17:34 | 49.96958 | 8.14194 | 755 ft | 3 kts | 252° |
| 2026-05-07 17:34 | 49.96946 | 8.14135 | 758 ft | 4 kts | 253° |
| 2026-05-07 17:34 | 49.96922 | 8.14085 | 755 ft | 4 kts | 204° |
| 2026-05-07 17:35 | 49.96869 | 8.14090 | 757 ft | 8 kts | 163° |
| 2026-05-07 17:35 | 49.96846 | 8.14099 | 757 ft | 0 kts | 165° |
| 2026-05-07 17:40 | 49.96832 | 8.14106 | 756 ft | 7 kts | 165° |
| 2026-05-07 17:40 | 49.96801 | 8.14136 | 753 ft | 5 kts | 94° |
| 2026-05-07 17:40 | 49.96841 | 8.14368 | 755 ft | 64 kts | 74° |
| 2026-05-07 17:40 | 49.97031 | 8.15408 | 836 ft | 123 kts | 74° |
| 2026-05-07 17:41 | 49.97313 | 8.16734 | 1317 ft | 131 kts | 79° |
| 2026-05-07 17:41 | 49.96929 | 8.17867 | 1621 ft | 131 kts | 158° |
| 2026-05-07 17:41 | 49.96078 | 8.17709 | 1653 ft | 129 kts | 219° |
| 2026-05-07 17:41 | 49.95686 | 8.16490 | 1680 ft | 127 kts | 254° |
| 2026-05-07 17:42 | 49.95041 | 8.15664 | 1629 ft | 131 kts | 185° |
| 2026-05-07 17:42 | 49.94139 | 8.15765 | 1708 ft | 129 kts | 172° |
| 2026-05-07 17:42 | 49.93288 | 8.15605 | 1755 ft | 122 kts | 211° |
| 2026-05-07 17:42 | 49.92762 | 8.14605 | 1715 ft | 122 kts | 259° |
| 2026-05-07 17:43 | 49.92998 | 8.13471 | 1728 ft | 112 kts | 327° |
| 2026-05-07 17:43 | 49.93716 | 8.13408 | 1746 ft | 107 kts | 18° |
| 2026-05-07 17:43 | 49.94425 | 8.13714 | 1751 ft | 103 kts | 14° |
| 2026-05-07 17:43 | 49.95121 | 8.14001 | 1744 ft | 102 kts | 14° |
| 2026-05-07 17:44 | 49.95823 | 8.14297 | 1746 ft | 106 kts | 15° |
| 2026-05-07 17:44 | 49.96560 | 8.14543 | 1762 ft | 119 kts | 4° |
| 2026-05-07 17:44 | 49.97432 | 8.14220 | 1820 ft | 141 kts | 335° |
| 2026-05-07 17:44 | 49.98345 | 8.13471 | 1854 ft | 154 kts | 333° |
| 2026-05-07 17:45 | 49.99312 | 8.12639 | 1854 ft | 165 kts | 332° |
| 2026-05-07 17:45 | 50.00332 | 8.11717 | 1840 ft | 172 kts | 331° |
| 2026-05-07 17:45 | 50.01366 | 8.10817 | 1834 ft | 166 kts | 332° |
| 2026-05-07 17:45 | 50.02338 | 8.09975 | 1825 ft | 154 kts | 332° |
| 2026-05-07 17:46 | 50.03261 | 8.09155 | 1819 ft | 152 kts | 331° |
| 2026-05-07 17:46 | 50.04230 | 8.08538 | 1817 ft | 151 kts | 354° |
| 2026-05-07 17:46 | 50.05265 | 8.08736 | 1827 ft | 150 kts | 21° |
| 2026-05-07 17:46 | 50.06120 | 8.09637 | 1828 ft | 148 kts | 40° |
| 2026-05-07 17:47 | 50.06892 | 8.10676 | 1826 ft | 148 kts | 40° |
| 2026-05-07 17:47 | 50.07675 | 8.11713 | 1827 ft | 147 kts | 40° |
| 2026-05-07 17:47 | 50.08456 | 8.12753 | 1824 ft | 148 kts | 40° |
| 2026-05-07 17:47 | 50.09233 | 8.13796 | 1824 ft | 147 kts | 40° |
| 2026-05-07 17:48 | 50.10012 | 8.14841 | 1826 ft | 148 kts | 40° |
| 2026-05-07 17:48 | 50.10525 | 8.15536 | 1823 ft | 147 kts | 40° |
| 2026-05-07 17:48 | 50.11303 | 8.16556 | 1829 ft | 144 kts | 39° |
| 2026-05-07 17:48 | 50.12063 | 8.17572 | 1856 ft | 143 kts | 41° |
| 2026-05-07 17:49 | 50.12782 | 8.18618 | 1885 ft | 139 kts | 44° |
| 2026-05-07 17:49 | 50.13455 | 8.19616 | 2038 ft | 130 kts | 42° |
| 2026-05-07 17:49 | 50.14125 | 8.20549 | 2254 ft | 134 kts | 39° |
| 2026-05-07 17:49 | 50.14888 | 8.21535 | 2498 ft | 150 kts | 37° |
| 2026-05-07 17:50 | 50.15797 | 8.22585 | 2537 ft | 172 kts | 36° |
| 2026-05-07 17:50 | 50.16743 | 8.23845 | 2552 ft | 183 kts | 41° |
| 2026-05-07 17:50 | 50.17720 | 8.25185 | 2556 ft | 190 kts | 39° |
| 2026-05-07 17:50 | 50.18739 | 8.26549 | 2558 ft | 194 kts | 39° |
| 2026-05-07 17:51 | 50.19774 | 8.27936 | 2554 ft | 198 kts | 40° |
| 2026-05-07 17:51 | 50.20798 | 8.29318 | 2552 ft | 185 kts | 39° |
| 2026-05-07 17:51 | 50.21627 | 8.30435 | 2537 ft | 170 kts | 39° |
| 2026-05-07 17:51 | 50.22487 | 8.31597 | 2540 ft | 156 kts | 39° |
| 2026-05-07 17:52 | 50.23297 | 8.32687 | 2538 ft | 151 kts | 39° |
| 2026-05-07 17:52 | 50.24088 | 8.33752 | 2542 ft | 150 kts | 39° |
| 2026-05-07 17:52 | 50.24875 | 8.34799 | 2547 ft | 148 kts | 39° |
| 2026-05-07 17:52 | 50.25651 | 8.35851 | 2543 ft | 146 kts | 40° |
| 2026-05-07 17:53 | 50.26401 | 8.36870 | 2544 ft | 142 kts | 39° |
| 2026-05-07 17:53 | 50.27149 | 8.37880 | 2541 ft | 143 kts | 39° |
| 2026-05-07 17:53 | 50.27904 | 8.38902 | 2545 ft | 144 kts | 39° |
| 2026-05-07 17:53 | 50.28665 | 8.39932 | 2550 ft | 145 kts | 39° |
| 2026-05-07 17:54 | 50.29416 | 8.41000 | 2552 ft | 145 kts | 43° |
| 2026-05-07 17:54 | 50.30149 | 8.42062 | 2548 ft | 143 kts | 40° |
| 2026-05-07 17:54 | 50.30881 | 8.43095 | 2542 ft | 141 kts | 41° |
| 2026-05-07 17:54 | 50.31598 | 8.44131 | 2543 ft | 140 kts | 41° |
| 2026-05-07 17:55 | 50.32317 | 8.45171 | 2544 ft | 141 kts | 41° |
| 2026-05-07 17:55 | 50.33041 | 8.46216 | 2545 ft | 142 kts | 41° |
| 2026-05-07 17:55 | 50.33766 | 8.47269 | 2544 ft | 142 kts | 41° |
| 2026-05-07 17:55 | 50.34482 | 8.48304 | 2543 ft | 139 kts | 41° |
| 2026-05-07 17:56 | 50.35191 | 8.49330 | 2548 ft | 141 kts | 41° |
| 2026-05-07 17:56 | 50.35910 | 8.50371 | 2545 ft | 139 kts | 41° |
| 2026-05-07 17:56 | 50.36620 | 8.51405 | 2545 ft | 139 kts | 41° |
| 2026-05-07 17:56 | 50.37326 | 8.52431 | 2548 ft | 139 kts | 41° |
| 2026-05-07 17:57 | 50.38052 | 8.53448 | 2551 ft | 139 kts | 37° |
| 2026-05-07 17:57 | 50.38553 | 8.54080 | 2559 ft | 140 kts | 38° |
| 2026-05-07 17:57 | 50.39548 | 8.55402 | 2554 ft | 140 kts | 39° |
| 2026-05-07 17:57 | 50.40290 | 8.56379 | 2555 ft | 139 kts | 37° |
| 2026-05-07 17:58 | 50.41035 | 8.57357 | 2554 ft | 140 kts | 38° |
| 2026-05-07 17:58 | 50.41786 | 8.58341 | 2558 ft | 141 kts | 38° |
| 2026-05-07 17:58 | 50.42536 | 8.59324 | 2558 ft | 139 kts | 38° |
| 2026-05-07 17:58 | 50.43282 | 8.60302 | 2556 ft | 140 kts | 38° |
| 2026-05-07 17:59 | 50.44020 | 8.61273 | 2561 ft | 141 kts | 38° |
| 2026-05-07 17:59 | 50.44782 | 8.62271 | 2560 ft | 140 kts | 38° |
| 2026-05-07 17:59 | 50.45531 | 8.63252 | 2585 ft | 139 kts | 38° |
| 2026-05-07 17:59 | 50.46256 | 8.64205 | 2651 ft | 137 kts | 39° |
| 2026-05-07 18:00 | 50.46995 | 8.65152 | 2727 ft | 141 kts | 37° |
| 2026-05-07 18:00 | 50.47842 | 8.66159 | 2829 ft | 162 kts | 36° |
| 2026-05-07 18:00 | 50.48731 | 8.67311 | 3011 ft | 171 kts | 39° |
| 2026-05-07 18:00 | 50.49671 | 8.68557 | 3123 ft | 181 kts | 38° |
| 2026-05-07 18:01 | 50.50661 | 8.69822 | 3202 ft | 186 kts | 38° |
| 2026-05-07 18:01 | 50.51654 | 8.71180 | 3195 ft | 194 kts | 40° |
| 2026-05-07 18:01 | 50.52651 | 8.72602 | 3203 ft | 188 kts | 40° |
| 2026-05-07 18:01 | 50.53623 | 8.73914 | 3211 ft | 180 kts | 38° |
| 2026-05-07 18:02 | 50.55480 | 8.76354 | 3211 ft | 170 kts | 38° |
| 2026-05-07 18:02 | 50.56379 | 8.77541 | 3211 ft | 167 kts | 38° |
| 2026-05-07 18:02 | 50.57303 | 8.78632 | 3212 ft | 165 kts | 25° |
| 2026-05-07 18:03 | 50.58384 | 8.79212 | 3214 ft | 165 kts | 17° |
| 2026-05-07 18:03 | 50.59475 | 8.79792 | 3216 ft | 165 kts | 18° |
| 2026-05-07 18:03 | 50.60567 | 8.80375 | 3217 ft | 166 kts | 18° |
| 2026-05-07 18:03 | 50.61666 | 8.80949 | 3218 ft | 167 kts | 17° |
| 2026-05-07 18:04 | 50.62761 | 8.81522 | 3215 ft | 166 kts | 18° |
| 2026-05-07 18:04 | 50.63850 | 8.82048 | 3217 ft | 164 kts | 11° |
| 2026-05-07 18:04 | 50.64977 | 8.82402 | 3219 ft | 167 kts | 11° |
| 2026-05-07 18:04 | 50.66112 | 8.82785 | 3220 ft | 167 kts | 12° |
| 2026-05-07 18:05 | 50.67248 | 8.83161 | 3221 ft | 167 kts | 11° |
| 2026-05-07 18:05 | 50.68379 | 8.83531 | 3220 ft | 166 kts | 11° |
| 2026-05-07 18:05 | 50.69509 | 8.83903 | 3220 ft | 165 kts | 11° |
| 2026-05-07 18:05 | 50.70637 | 8.84273 | 3224 ft | 166 kts | 11° |
| 2026-05-07 18:06 | 50.71767 | 8.84642 | 3227 ft | 165 kts | 11° |
| 2026-05-07 18:06 | 50.72899 | 8.85024 | 3233 ft | 166 kts | 12° |
| 2026-05-07 18:06 | 50.74039 | 8.85402 | 3234 ft | 168 kts | 12° |
| 2026-05-07 18:06 | 50.75191 | 8.85787 | 3237 ft | 170 kts | 11° |
| 2026-05-07 18:07 | 50.76353 | 8.86171 | 3230 ft | 171 kts | 11° |
| 2026-05-07 18:07 | 50.77518 | 8.86548 | 3231 ft | 170 kts | 11° |
| 2026-05-07 18:07 | 50.78682 | 8.86928 | 3231 ft | 171 kts | 11° |
| 2026-05-07 18:07 | 50.79845 | 8.87315 | 3229 ft | 170 kts | 12° |
| 2026-05-07 18:08 | 50.81005 | 8.87701 | 3231 ft | 170 kts | 12° |
| 2026-05-07 18:08 | 50.82141 | 8.88075 | 3233 ft | 167 kts | 11° |
| 2026-05-07 18:08 | 50.83279 | 8.88455 | 3229 ft | 167 kts | 11° |
| 2026-05-07 18:08 | 50.84414 | 8.88830 | 3231 ft | 166 kts | 11° |
| 2026-05-07 18:09 | 50.85554 | 8.89208 | 3232 ft | 167 kts | 11° |
| 2026-05-07 18:09 | 50.86695 | 8.89584 | 3233 ft | 168 kts | 11° |
| 2026-05-07 18:09 | 50.87831 | 8.89974 | 3234 ft | 167 kts | 12° |
| 2026-05-07 18:09 | 50.88974 | 8.90350 | 3228 ft | 167 kts | 10° |
| 2026-05-07 18:10 | 50.90105 | 8.90714 | 3228 ft | 165 kts | 11° |
| 2026-05-07 18:10 | 50.91234 | 8.91094 | 3225 ft | 166 kts | 11° |
| 2026-05-07 18:10 | 50.92357 | 8.91469 | 3233 ft | 164 kts | 11° |
| 2026-05-07 18:10 | 50.93475 | 8.91842 | 3229 ft | 163 kts | 11° |
| 2026-05-07 18:11 | 50.94592 | 8.92213 | 3230 ft | 165 kts | 12° |
| 2026-05-07 18:11 | 50.95333 | 8.92458 | 3230 ft | 163 kts | 11° |
| 2026-05-07 18:11 | 50.96824 | 8.92964 | 3231 ft | 165 kts | 12° |
| 2026-05-07 18:11 | 50.97936 | 8.93331 | 3232 ft | 166 kts | 11° |
| 2026-05-07 18:12 | 50.99065 | 8.93706 | 3239 ft | 166 kts | 12° |
| 2026-05-07 18:12 | 51.00194 | 8.94081 | 3237 ft | 165 kts | 11° |
| 2026-05-07 18:12 | 51.01319 | 8.94457 | 3238 ft | 165 kts | 11° |
| 2026-05-07 18:12 | 51.02444 | 8.94835 | 3240 ft | 165 kts | 11° |
| 2026-05-07 18:13 | 51.03566 | 8.95206 | 3237 ft | 165 kts | 11° |
| 2026-05-07 18:13 | 51.04684 | 8.95581 | 3235 ft | 163 kts | 11° |
| 2026-05-07 18:13 | 51.05793 | 8.95951 | 3231 ft | 162 kts | 11° |
| 2026-05-07 18:13 | 51.06898 | 8.96322 | 3234 ft | 163 kts | 11° |
| 2026-05-07 18:14 | 51.08011 | 8.96698 | 3232 ft | 163 kts | 11° |
| 2026-05-07 18:14 | 51.09128 | 8.97071 | 3230 ft | 164 kts | 11° |
| 2026-05-07 18:14 | 51.10238 | 8.97445 | 3234 ft | 163 kts | 11° |
| 2026-05-07 18:14 | 51.11359 | 8.97820 | 3234 ft | 165 kts | 11° |
| 2026-05-07 18:15 | 51.12468 | 8.98189 | 3235 ft | 165 kts | 11° |
| 2026-05-07 18:15 | 51.13585 | 8.98568 | 3241 ft | 164 kts | 11° |
| 2026-05-07 18:15 | 51.14707 | 8.98944 | 3241 ft | 165 kts | 11° |
| 2026-05-07 18:15 | 51.15837 | 8.99322 | 3234 ft | 167 kts | 12° |
| 2026-05-07 18:16 | 51.16969 | 8.99708 | 3240 ft | 166 kts | 11° |
| 2026-05-07 18:16 | 51.18096 | 9.00083 | 3240 ft | 165 kts | 12° |
| 2026-05-07 18:16 | 51.19223 | 9.00460 | 3243 ft | 167 kts | 11° |
| 2026-05-07 18:16 | 51.20357 | 9.00846 | 3244 ft | 167 kts | 11° |
| 2026-05-07 18:17 | 51.21496 | 9.01228 | 3236 ft | 167 kts | 11° |
| 2026-05-07 18:17 | 51.22634 | 9.01615 | 3239 ft | 167 kts | 12° |
| 2026-05-07 18:17 | 51.23772 | 9.01997 | 3234 ft | 166 kts | 11° |
| 2026-05-07 18:17 | 51.24899 | 9.02376 | 3235 ft | 166 kts | 11° |
| 2026-05-07 18:18 | 51.26031 | 9.02760 | 3239 ft | 167 kts | 12° |
| 2026-05-07 18:18 | 51.27168 | 9.03147 | 3241 ft | 167 kts | 11° |
| 2026-05-07 18:18 | 51.28288 | 9.03529 | 3240 ft | 165 kts | 11° |
| 2026-05-07 18:18 | 51.29426 | 9.03907 | 3238 ft | 165 kts | 11° |
| 2026-05-07 18:19 | 51.30548 | 9.04289 | 3235 ft | 165 kts | 11° |
| 2026-05-07 18:19 | 51.31658 | 9.04660 | 3236 ft | 165 kts | 11° |
| 2026-05-07 18:19 | 51.32782 | 9.05035 | 3236 ft | 165 kts | 11° |
| 2026-05-07 18:19 | 51.33915 | 9.05413 | 3120 ft | 172 kts | 11° |
| 2026-05-07 18:20 | 51.35109 | 9.05729 | 3019 ft | 172 kts | 9° |
| 2026-05-07 18:20 | 51.36287 | 9.06152 | 2913 ft | 174 kts | 13° |
| 2026-05-07 18:20 | 51.37483 | 9.06601 | 2809 ft | 175 kts | 12° |
| 2026-05-07 18:20 | 51.38675 | 9.07024 | 2617 ft | 179 kts | 12° |
| 2026-05-07 18:21 | 51.39882 | 9.07428 | 2633 ft | 171 kts | 12° |
| 2026-05-07 18:21 | 51.41024 | 9.07830 | 2679 ft | 167 kts | 12° |
| 2026-05-07 18:21 | 51.42160 | 9.08223 | 2681 ft | 167 kts | 12° |
| 2026-05-07 18:21 | 51.43292 | 9.08608 | 2679 ft | 166 kts | 12° |
| 2026-05-07 18:22 | 51.44416 | 9.08995 | 2673 ft | 165 kts | 12° |
| 2026-05-07 18:22 | 51.45163 | 9.09249 | 2673 ft | 166 kts | 12° |
| 2026-05-07 18:22 | 51.46683 | 9.09767 | 2676 ft | 168 kts | 12° |
| 2026-05-07 18:22 | 51.47826 | 9.10157 | 2678 ft | 168 kts | 12° |
| 2026-05-07 18:23 | 51.48977 | 9.10549 | 2677 ft | 169 kts | 12° |
| 2026-05-07 18:23 | 51.50127 | 9.10941 | 2677 ft | 170 kts | 12° |
| 2026-05-07 18:23 | 51.51294 | 9.11243 | 2678 ft | 170 kts | 7° |
| 2026-05-07 18:23 | 51.52469 | 9.11485 | 2679 ft | 170 kts | 8° |
| 2026-05-07 18:24 | 51.53638 | 9.11746 | 2678 ft | 170 kts | 8° |
| 2026-05-07 18:24 | 51.54806 | 9.12002 | 2679 ft | 170 kts | 8° |
| 2026-05-07 18:24 | 51.55962 | 9.12251 | 2679 ft | 170 kts | 8° |
| 2026-05-07 18:24 | 51.57133 | 9.12503 | 2679 ft | 169 kts | 8° |
| 2026-05-07 18:25 | 51.58302 | 9.12754 | 2677 ft | 170 kts | 8° |
| 2026-05-07 18:25 | 51.59480 | 9.13007 | 2676 ft | 170 kts | 8° |
| 2026-05-07 18:25 | 51.60653 | 9.13259 | 2675 ft | 170 kts | 8° |
| 2026-05-07 18:25 | 51.61822 | 9.13511 | 2674 ft | 169 kts | 8° |
| 2026-05-07 18:26 | 51.62992 | 9.13762 | 2679 ft | 169 kts | 8° |
| 2026-05-07 18:26 | 51.64156 | 9.14015 | 2678 ft | 169 kts | 8° |
| 2026-05-07 18:26 | 51.65320 | 9.14265 | 2678 ft | 169 kts | 8° |
| 2026-05-07 18:26 | 51.66487 | 9.14515 | 2678 ft | 169 kts | 8° |
| 2026-05-07 18:27 | 51.67657 | 9.14771 | 2679 ft | 169 kts | 8° |
| 2026-05-07 18:27 | 51.68823 | 9.15021 | 2678 ft | 169 kts | 8° |
| 2026-05-07 18:27 | 51.69996 | 9.15280 | 2673 ft | 171 kts | 9° |
| 2026-05-07 18:27 | 51.70776 | 9.15448 | 2674 ft | 170 kts | 9° |
| 2026-05-07 18:28 | 51.72332 | 9.15785 | 2674 ft | 170 kts | 9° |
| 2026-05-07 18:28 | 51.73507 | 9.16037 | 2674 ft | 170 kts | 9° |
| 2026-05-07 18:28 | 51.74678 | 9.16289 | 2679 ft | 170 kts | 9° |
| 2026-05-07 18:28 | 51.75851 | 9.16544 | 2678 ft | 171 kts | 9° |
| 2026-05-07 18:29 | 51.77032 | 9.16798 | 2680 ft | 171 kts | 9° |
| 2026-05-07 18:29 | 51.78216 | 9.17055 | 2680 ft | 171 kts | 9° |
| 2026-05-07 18:29 | 51.79399 | 9.17312 | 2680 ft | 172 kts | 9° |
| 2026-05-07 18:29 | 51.80587 | 9.17570 | 2679 ft | 172 kts | 9° |
| 2026-05-07 18:30 | 51.81766 | 9.17830 | 2678 ft | 171 kts | 9° |
| 2026-05-07 18:30 | 51.82951 | 9.18084 | 2678 ft | 171 kts | 9° |
| 2026-05-07 18:30 | 51.84127 | 9.18340 | 2679 ft | 170 kts | 9° |
| 2026-05-07 18:30 | 51.85305 | 9.18599 | 2678 ft | 170 kts | 9° |
| 2026-05-07 18:31 | 51.86479 | 9.18854 | 2677 ft | 171 kts | 9° |
| 2026-05-07 18:31 | 51.87654 | 9.19109 | 2674 ft | 170 kts | 9° |
| 2026-05-07 18:31 | 51.88820 | 9.19378 | 2675 ft | 169 kts | 12° |
| 2026-05-07 18:31 | 51.89977 | 9.19702 | 2677 ft | 169 kts | 10° |
| 2026-05-07 18:32 | 51.90748 | 9.19889 | 2683 ft | 170 kts | 10° |
| 2026-05-07 18:32 | 51.91924 | 9.20186 | 2678 ft | 170 kts | 11° |
| 2026-05-07 18:32 | 51.93096 | 9.20488 | 2682 ft | 171 kts | 12° |
| 2026-05-07 18:32 | 51.94656 | 9.20897 | 2684 ft | 172 kts | 11° |
| 2026-05-07 18:33 | 51.95843 | 9.21208 | 2688 ft | 172 kts | 11° |
| 2026-05-07 18:33 | 51.96645 | 9.21414 | 2690 ft | 172 kts | 11° |
| 2026-05-07 18:33 | 51.97830 | 9.21723 | 2689 ft | 173 kts | 11° |
| 2026-05-07 18:33 | 51.99407 | 9.22137 | 2689 ft | 173 kts | 11° |
| 2026-05-07 18:34 | 52.00209 | 9.22347 | 2684 ft | 173 kts | 11° |
| 2026-05-07 18:34 | 52.01378 | 9.22652 | 2684 ft | 172 kts | 11° |
| 2026-05-07 18:34 | 52.02559 | 9.22963 | 2681 ft | 171 kts | 11° |
| 2026-05-07 18:34 | 52.03731 | 9.23267 | 2681 ft | 170 kts | 11° |
| 2026-05-07 18:35 | 52.04915 | 9.23580 | 2680 ft | 170 kts | 12° |
| 2026-05-07 18:35 | 52.06090 | 9.23810 | 2679 ft | 170 kts | 7° |
| 2026-05-07 18:35 | 52.07269 | 9.24023 | 2618 ft | 174 kts | 8° |
| 2026-05-07 18:35 | 52.08497 | 9.24250 | 2336 ft | 184 kts | 8° |
| 2026-05-07 18:36 | 52.09773 | 9.24453 | 2203 ft | 184 kts | 7° |
| 2026-05-07 18:36 | 52.11056 | 9.24635 | 2071 ft | 184 kts | 6° |
| 2026-05-07 18:36 | 52.12304 | 9.24867 | 2100 ft | 177 kts | 11° |
| 2026-05-07 18:36 | 52.13512 | 9.25157 | 2126 ft | 174 kts | 10° |
| 2026-05-07 18:37 | 52.14706 | 9.25389 | 2150 ft | 173 kts | 8° |
| 2026-05-07 18:37 | 52.15900 | 9.25606 | 2173 ft | 172 kts | 8° |
| 2026-05-07 18:37 | 52.17091 | 9.25818 | 2194 ft | 172 kts | 10° |
| 2026-05-07 18:37 | 52.18274 | 9.26035 | 2218 ft | 171 kts | 10° |
| 2026-05-07 18:38 | 52.19458 | 9.26251 | 2241 ft | 171 kts | 10° |
| 2026-05-07 18:38 | 52.20634 | 9.26466 | 2266 ft | 170 kts | 10° |
| 2026-05-07 18:38 | 52.21814 | 9.26680 | 2284 ft | 170 kts | 10° |
| 2026-05-07 18:38 | 52.22989 | 9.26894 | 2310 ft | 170 kts | 10° |
| 2026-05-07 18:39 | 52.24158 | 9.27163 | 2336 ft | 170 kts | 9° |
| 2026-05-07 18:39 | 52.25343 | 9.27221 | 2363 ft | 171 kts | 4° |
| 2026-05-07 18:39 | 52.26538 | 9.27232 | 2390 ft | 172 kts | 4° |
| 2026-05-07 18:39 | 52.27740 | 9.27241 | 2419 ft | 173 kts | 4° |
| 2026-05-07 18:40 | 52.28953 | 9.27255 | 2447 ft | 174 kts | 4° |
| 2026-05-07 18:40 | 52.30164 | 9.27265 | 2471 ft | 173 kts | 4° |
| 2026-05-07 18:40 | 52.31362 | 9.27280 | 2494 ft | 171 kts | 4° |
| 2026-05-07 18:40 | 52.32554 | 9.27294 | 2521 ft | 171 kts | 4° |
| 2026-05-07 18:41 | 52.33745 | 9.27302 | 2549 ft | 171 kts | 4° |
| 2026-05-07 18:41 | 52.34921 | 9.27317 | 2572 ft | 171 kts | 3° |
| 2026-05-07 18:41 | 52.36115 | 9.26959 | 2499 ft | 180 kts | 341° |
| 2026-05-07 18:41 | 52.37241 | 9.25978 | 2407 ft | 184 kts | 332° |
| 2026-05-07 18:42 | 52.38317 | 9.24797 | 2306 ft | 187 kts | 326° |
| 2026-05-07 18:42 | 52.39363 | 9.23514 | 2216 ft | 189 kts | 326° |
| 2026-05-07 18:42 | 52.40442 | 9.22202 | 2041 ft | 191 kts | 326° |
| 2026-05-07 18:42 | 52.41498 | 9.20908 | 2004 ft | 189 kts | 326° |
| 2026-05-07 18:43 | 52.42585 | 9.19718 | 1954 ft | 186 kts | 341° |
| 2026-05-07 18:43 | 52.43820 | 9.19262 | 1937 ft | 179 kts | 360° |
| 2026-05-07 18:43 | 52.45054 | 9.19198 | 1962 ft | 176 kts | 2° |
| 2026-05-07 18:43 | 52.46272 | 9.19152 | 1988 ft | 175 kts | 3° |
| 2026-05-07 18:44 | 52.47488 | 9.19098 | 1985 ft | 175 kts | 2° |
| 2026-05-07 18:44 | 52.48706 | 9.19042 | 1985 ft | 175 kts | 3° |
| 2026-05-07 18:44 | 52.49925 | 9.18991 | 1996 ft | 175 kts | 2° |
| 2026-05-07 18:44 | 52.51142 | 9.18943 | 1993 ft | 175 kts | 3° |
| 2026-05-07 18:45 | 52.52363 | 9.18890 | 1995 ft | 175 kts | 2° |
| 2026-05-07 18:45 | 52.53582 | 9.18840 | 1996 ft | 176 kts | 2° |
| 2026-05-07 18:45 | 52.54803 | 9.18791 | 1997 ft | 175 kts | 2° |
| 2026-05-07 18:45 | 52.56019 | 9.18743 | 1996 ft | 175 kts | 2° |
| 2026-05-07 18:46 | 52.57237 | 9.18700 | 1999 ft | 175 kts | 2° |
| 2026-05-07 18:46 | 52.58458 | 9.18662 | 1999 ft | 175 kts | 3° |
| 2026-05-07 18:46 | 52.59625 | 9.19018 | 1996 ft | 170 kts | 27° |
| 2026-05-07 18:46 | 52.60689 | 9.19853 | 1996 ft | 169 kts | 29° |
| 2026-05-07 18:47 | 52.61744 | 9.20703 | 1991 ft | 169 kts | 30° |
| 2026-05-07 18:47 | 52.62796 | 9.21550 | 1993 ft | 169 kts | 30° |
| 2026-05-07 18:47 | 52.63853 | 9.22401 | 1993 ft | 169 kts | 30° |
| 2026-05-07 18:47 | 52.64909 | 9.23255 | 1993 ft | 169 kts | 28° |
| 2026-05-07 18:48 | 52.65944 | 9.24117 | 1996 ft | 169 kts | 30° |
| 2026-05-07 18:48 | 52.66992 | 9.25006 | 1997 ft | 170 kts | 30° |
| 2026-05-07 18:48 | 52.68043 | 9.25898 | 1996 ft | 170 kts | 30° |
| 2026-05-07 18:48 | 52.69092 | 9.26796 | 2000 ft | 170 kts | 30° |
| 2026-05-07 18:49 | 52.70150 | 9.27687 | 2000 ft | 171 kts | 30° |
| 2026-05-07 18:49 | 52.71206 | 9.28574 | 2001 ft | 170 kts | 30° |
| 2026-05-07 18:49 | 52.72259 | 9.29467 | 1999 ft | 170 kts | 30° |
| 2026-05-07 18:49 | 52.73314 | 9.30360 | 2001 ft | 170 kts | 30° |
| 2026-05-07 18:50 | 52.74372 | 9.31256 | 1997 ft | 171 kts | 30° |
| 2026-05-07 18:50 | 52.75431 | 9.32155 | 1999 ft | 172 kts | 30° |
| 2026-05-07 18:50 | 52.76495 | 9.33056 | 1998 ft | 171 kts | 30° |
| 2026-05-07 18:50 | 52.77556 | 9.33953 | 1998 ft | 171 kts | 30° |
| 2026-05-07 18:51 | 52.78617 | 9.34851 | 2001 ft | 171 kts | 30° |
| 2026-05-07 18:51 | 52.79679 | 9.35748 | 2000 ft | 171 kts | 30° |
| 2026-05-07 18:51 | 52.80734 | 9.36643 | 1999 ft | 170 kts | 30° |
| 2026-05-07 18:51 | 52.81789 | 9.37534 | 1998 ft | 170 kts | 30° |
| 2026-05-07 18:52 | 52.82848 | 9.38382 | 1998 ft | 170 kts | 25° |
| 2026-05-07 18:52 | 52.83957 | 9.39007 | 1998 ft | 170 kts | 20° |
| 2026-05-07 18:52 | 52.85090 | 9.39582 | 1998 ft | 170 kts | 20° |
| 2026-05-07 18:52 | 52.86225 | 9.40156 | 1999 ft | 171 kts | 20° |
| 2026-05-07 18:53 | 52.87380 | 9.40609 | 1997 ft | 172 kts | 10° |
| 2026-05-07 18:53 | 52.88578 | 9.40758 | 1994 ft | 173 kts | 6° |
| 2026-05-07 18:53 | 52.89779 | 9.40969 | 1994 ft | 173 kts | 9° |
| 2026-05-07 18:53 | 52.90984 | 9.41212 | 1995 ft | 174 kts | 9° |
| 2026-05-07 18:54 | 52.92190 | 9.41457 | 1990 ft | 175 kts | 8° |
| 2026-05-07 18:54 | 52.93393 | 9.41708 | 1989 ft | 175 kts | 9° |
| 2026-05-07 18:54 | 52.94585 | 9.41957 | 1991 ft | 174 kts | 9° |
| 2026-05-07 18:54 | 52.95790 | 9.42209 | 1989 ft | 175 kts | 8° |
| 2026-05-07 18:55 | 52.96996 | 9.42461 | 1991 ft | 174 kts | 9° |
| 2026-05-07 18:55 | 52.98198 | 9.42711 | 1993 ft | 174 kts | 9° |
| 2026-05-07 18:55 | 52.99402 | 9.42961 | 1993 ft | 174 kts | 9° |
| 2026-05-07 18:55 | 53.00602 | 9.43206 | 1993 ft | 174 kts | 9° |
| 2026-05-07 18:56 | 53.01811 | 9.43376 | 1991 ft | 174 kts | 5° |
| 2026-05-07 18:56 | 53.03020 | 9.43482 | 1992 ft | 174 kts | 5° |
| 2026-05-07 18:56 | 53.04232 | 9.43592 | 1992 ft | 174 kts | 5° |
| 2026-05-07 18:56 | 53.05445 | 9.43697 | 1992 ft | 174 kts | 5° |
| 2026-05-07 18:57 | 53.06656 | 9.43611 | 1988 ft | 176 kts | 345° |
| 2026-05-07 18:57 | 53.07778 | 9.42762 | 1988 ft | 178 kts | 332° |
| 2026-05-07 18:57 | 53.08814 | 9.41639 | 1989 ft | 178 kts | 326° |
| 2026-05-07 18:57 | 53.09825 | 9.40440 | 1990 ft | 178 kts | 326° |
| 2026-05-07 18:58 | 53.10832 | 9.39240 | 1981 ft | 178 kts | 326° |
| 2026-05-07 18:58 | 53.11824 | 9.38056 | 1982 ft | 178 kts | 326° |
| 2026-05-07 18:58 | 53.12816 | 9.36828 | 1980 ft | 178 kts | 323° |
| 2026-05-07 18:58 | 53.13781 | 9.35550 | 1980 ft | 177 kts | 323° |
| 2026-05-07 18:59 | 53.14743 | 9.34267 | 1982 ft | 177 kts | 323° |
| 2026-05-07 18:59 | 53.15702 | 9.32986 | 1982 ft | 176 kts | 323° |
| 2026-05-07 18:59 | 53.16660 | 9.31700 | 1983 ft | 177 kts | 322° |
| 2026-05-07 18:59 | 53.17620 | 9.30416 | 1984 ft | 177 kts | 323° |
| 2026-05-07 19:00 | 53.18584 | 9.29128 | 1982 ft | 177 kts | 323° |
| 2026-05-07 19:00 | 53.19546 | 9.27843 | 1982 ft | 177 kts | 323° |
| 2026-05-07 19:00 | 53.20509 | 9.26559 | 1982 ft | 177 kts | 323° |
| 2026-05-07 19:00 | 53.21472 | 9.25270 | 1981 ft | 177 kts | 323° |
| 2026-05-07 19:01 | 53.22432 | 9.23986 | 1982 ft | 177 kts | 323° |
| 2026-05-07 19:01 | 53.23396 | 9.22686 | 1980 ft | 179 kts | 322° |
| 2026-05-07 19:01 | 53.24368 | 9.21379 | 1981 ft | 180 kts | 323° |
| 2026-05-07 19:01 | 53.25334 | 9.20076 | 1982 ft | 181 kts | 323° |
| 2026-05-07 19:02 | 53.26315 | 9.18753 | 1983 ft | 181 kts | 323° |
| 2026-05-07 19:02 | 53.27297 | 9.17432 | 1984 ft | 181 kts | 323° |
| 2026-05-07 19:02 | 53.28276 | 9.16109 | 1984 ft | 180 kts | 323° |
| 2026-05-07 19:02 | 53.29252 | 9.14791 | 1983 ft | 179 kts | 323° |
| 2026-05-07 19:03 | 53.30222 | 9.13477 | 1979 ft | 179 kts | 322° |
| 2026-05-07 19:03 | 53.31193 | 9.12163 | 1979 ft | 180 kts | 323° |
| 2026-05-07 19:03 | 53.32164 | 9.10845 | 1979 ft | 180 kts | 323° |
| 2026-05-07 19:03 | 53.33137 | 9.09522 | 1979 ft | 180 kts | 323° |
| 2026-05-07 19:04 | 53.34109 | 9.08200 | 1982 ft | 180 kts | 322° |
| 2026-05-07 19:04 | 53.35082 | 9.06884 | 1980 ft | 180 kts | 323° |
| 2026-05-07 19:04 | 53.36048 | 9.05568 | 1979 ft | 179 kts | 322° |
| 2026-05-07 19:04 | 53.36997 | 9.04271 | 1980 ft | 178 kts | 322° |
| 2026-05-07 19:05 | 53.37966 | 9.02960 | 1977 ft | 179 kts | 323° |
| 2026-05-07 19:05 | 53.38929 | 9.01653 | 1977 ft | 178 kts | 323° |
| 2026-05-07 19:05 | 53.39891 | 9.00341 | 1977 ft | 178 kts | 323° |
| 2026-05-07 19:05 | 53.40851 | 8.99021 | 1973 ft | 179 kts | 323° |
| 2026-05-07 19:06 | 53.41814 | 8.97672 | 1973 ft | 181 kts | 322° |
| 2026-05-07 19:06 | 53.43746 | 8.94958 | 1974 ft | 182 kts | 322° |
| 2026-05-07 19:06 | 53.44717 | 8.93595 | 1975 ft | 182 kts | 323° |
| 2026-05-07 19:07 | 53.45689 | 8.92233 | 1976 ft | 182 kts | 324° |
| 2026-05-07 19:07 | 53.46709 | 8.90985 | 1976 ft | 181 kts | 328° |
| 2026-05-07 19:07 | 53.47740 | 8.89768 | 1976 ft | 181 kts | 328° |
| 2026-05-07 19:07 | 53.48772 | 8.88551 | 1977 ft | 181 kts | 328° |
| 2026-05-07 19:08 | 53.49806 | 8.87337 | 1976 ft | 181 kts | 328° |
| 2026-05-07 19:08 | 53.50847 | 8.86154 | 1976 ft | 180 kts | 332° |
| 2026-05-07 19:08 | 53.51953 | 8.85164 | 1980 ft | 180 kts | 335° |
| 2026-05-07 19:08 | 53.53087 | 8.84307 | 1979 ft | 178 kts | 343° |
| 2026-05-07 19:09 | 53.54255 | 8.83608 | 1977 ft | 178 kts | 343° |
| 2026-05-07 19:09 | 53.55407 | 8.82922 | 1977 ft | 178 kts | 343° |
| 2026-05-07 19:09 | 53.56579 | 8.82228 | 1976 ft | 179 kts | 344° |
| 2026-05-07 19:09 | 53.57785 | 8.81750 | 1974 ft | 177 kts | 359° |
| 2026-05-07 19:10 | 53.59017 | 8.81664 | 1978 ft | 177 kts | 1° |
| 2026-05-07 19:10 | 53.60254 | 8.81599 | 1979 ft | 178 kts | 2° |
| 2026-05-07 19:10 | 53.61486 | 8.81526 | 1980 ft | 178 kts | 1° |
| 2026-05-07 19:10 | 53.62724 | 8.81452 | 1981 ft | 178 kts | 1° |
| 2026-05-07 19:11 | 53.63956 | 8.81390 | 1980 ft | 177 kts | 1° |
| 2026-05-07 19:11 | 53.65189 | 8.81324 | 1982 ft | 178 kts | 1° |
| 2026-05-07 19:11 | 53.66428 | 8.81252 | 1982 ft | 179 kts | 1° |
| 2026-05-07 19:11 | 53.67656 | 8.81180 | 1976 ft | 178 kts | 2° |
| 2026-05-07 19:12 | 53.68893 | 8.81080 | 1979 ft | 178 kts | 1° |
| 2026-05-07 19:12 | 53.70124 | 8.80984 | 1978 ft | 177 kts | 1° |
| 2026-05-07 19:12 | 53.71353 | 8.80887 | 1976 ft | 176 kts | 2° |
| 2026-05-07 19:12 | 53.72582 | 8.80774 | 1976 ft | 177 kts | 1° |
| 2026-05-07 19:13 | 53.73811 | 8.80663 | 1976 ft | 177 kts | 1° |
| 2026-05-07 19:13 | 53.75038 | 8.80564 | 1973 ft | 176 kts | 1° |
| 2026-05-07 19:13 | 53.76258 | 8.80469 | 1974 ft | 175 kts | 1° |
| 2026-05-07 19:13 | 53.77482 | 8.80373 | 1975 ft | 177 kts | 1° |
| 2026-05-07 19:14 | 53.78712 | 8.80277 | 1972 ft | 177 kts | 1° |
| 2026-05-07 19:14 | 53.79943 | 8.80179 | 1972 ft | 176 kts | 2° |
| 2026-05-07 19:14 | 53.81171 | 8.80082 | 1971 ft | 176 kts | 1° |
| 2026-05-07 19:14 | 53.82398 | 8.79989 | 1973 ft | 177 kts | 2° |
| 2026-05-07 19:15 | 53.83611 | 8.79891 | 1977 ft | 177 kts | 1° |
| 2026-05-07 19:15 | 53.84838 | 8.79792 | 1978 ft | 176 kts | 1° |
| 2026-05-07 19:15 | 53.86062 | 8.79690 | 1976 ft | 176 kts | 1° |
| 2026-05-07 19:15 | 53.87288 | 8.79588 | 1977 ft | 177 kts | 2° |
| 2026-05-07 19:16 | 53.88517 | 8.79481 | 1978 ft | 177 kts | 1° |
| 2026-05-07 19:16 | 53.89745 | 8.79375 | 1977 ft | 176 kts | 1° |
| 2026-05-07 19:16 | 53.90965 | 8.79275 | 1977 ft | 176 kts | 1° |
| 2026-05-07 19:16 | 53.92187 | 8.79165 | 1980 ft | 176 kts | 1° |
| 2026-05-07 19:17 | 53.93412 | 8.79064 | 1974 ft | 177 kts | 1° |
| 2026-05-07 19:17 | 53.94639 | 8.78978 | 1973 ft | 177 kts | 1° |
| 2026-05-07 19:17 | 53.95866 | 8.78894 | 1974 ft | 176 kts | 1° |
| 2026-05-07 19:17 | 53.97089 | 8.78811 | 1977 ft | 176 kts | 1° |
| 2026-05-07 19:18 | 53.97900 | 8.78759 | 1973 ft | 176 kts | 1° |
| 2026-05-07 19:18 | 53.99122 | 8.78682 | 1977 ft | 176 kts | 2° |
| 2026-05-07 19:18 | 54.00346 | 8.78601 | 1999 ft | 176 kts | 1° |
| 2026-05-07 19:18 | 54.01570 | 8.78519 | 1997 ft | 176 kts | 1° |
| 2026-05-07 19:19 | 54.02799 | 8.78437 | 1978 ft | 177 kts | 1° |
| 2026-05-07 19:19 | 54.04035 | 8.78356 | 1948 ft | 178 kts | 2° |
| 2026-05-07 19:19 | 54.05272 | 8.78269 | 1973 ft | 177 kts | 1° |
| 2026-05-07 19:19 | 54.06507 | 8.78185 | 1974 ft | 177 kts | 2° |
| 2026-05-07 19:20 | 54.07740 | 8.78098 | 1972 ft | 178 kts | 1° |
| 2026-05-07 19:20 | 54.08973 | 8.78003 | 1972 ft | 177 kts | 2° |
| 2026-05-07 19:20 | 54.10205 | 8.77909 | 1972 ft | 177 kts | 1° |
| 2026-05-07 19:20 | 54.11435 | 8.77827 | 1973 ft | 177 kts | 1° |
| 2026-05-07 19:21 | 54.12662 | 8.77736 | 1976 ft | 176 kts | 1° |
| 2026-05-07 19:21 | 54.13887 | 8.77639 | 1978 ft | 176 kts | 2° |
| 2026-05-07 19:21 | 54.15113 | 8.77546 | 1978 ft | 177 kts | 1° |
| 2026-05-07 19:21 | 54.16331 | 8.77460 | 1979 ft | 177 kts | 1° |
| 2026-05-07 19:22 | 54.17561 | 8.77376 | 1980 ft | 177 kts | 2° |
| 2026-05-07 19:22 | 54.18793 | 8.77293 | 1968 ft | 178 kts | 1° |
| 2026-05-07 19:22 | 54.20032 | 8.77240 | 1970 ft | 179 kts | 2° |
| 2026-05-07 19:22 | 54.21279 | 8.77192 | 1973 ft | 180 kts | 2° |
| 2026-05-07 19:23 | 54.22529 | 8.77139 | 1972 ft | 180 kts | 1° |
| 2026-05-07 19:23 | 54.23784 | 8.77085 | 1976 ft | 180 kts | 1° |
| 2026-05-07 19:23 | 54.25036 | 8.77033 | 1977 ft | 180 kts | 1° |
| 2026-05-07 19:23 | 54.26289 | 8.76980 | 1976 ft | 180 kts | 1° |
| 2026-05-07 19:24 | 54.27539 | 8.76929 | 1972 ft | 179 kts | 1° |
| 2026-05-07 19:24 | 54.28786 | 8.76878 | 1973 ft | 178 kts | 1° |
| 2026-05-07 19:24 | 54.30028 | 8.76825 | 1972 ft | 179 kts | 2° |
| 2026-05-07 19:24 | 54.31271 | 8.76764 | 1972 ft | 179 kts | 2° |
| 2026-05-07 19:25 | 54.32514 | 8.76696 | 1973 ft | 179 kts | 1° |
| 2026-05-07 19:25 | 54.33745 | 8.76634 | 1971 ft | 179 kts | 1° |
| 2026-05-07 19:25 | 54.34985 | 8.76566 | 1974 ft | 178 kts | 1° |
| 2026-05-07 19:25 | 54.36228 | 8.76506 | 1975 ft | 179 kts | 2° |
| 2026-05-07 19:26 | 54.37474 | 8.76448 | 1974 ft | 179 kts | 2° |
| 2026-05-07 19:26 | 54.38717 | 8.76386 | 1974 ft | 179 kts | 2° |
| 2026-05-07 19:26 | 54.39961 | 8.76320 | 1976 ft | 179 kts | 1° |
| 2026-05-07 19:26 | 54.41202 | 8.76263 | 1976 ft | 178 kts | 1° |
| 2026-05-07 19:27 | 54.42443 | 8.76207 | 1976 ft | 178 kts | 2° |
| 2026-05-07 19:27 | 54.43683 | 8.76118 | 1974 ft | 179 kts | 356° |
| 2026-05-07 19:27 | 54.44921 | 8.75776 | 1973 ft | 181 kts | 351° |
| 2026-05-07 19:27 | 54.46163 | 8.75346 | 1974 ft | 183 kts | 351° |
| 2026-05-07 19:28 | 54.47409 | 8.74906 | 1976 ft | 183 kts | 351° |
| 2026-05-07 19:28 | 54.48654 | 8.74476 | 1980 ft | 182 kts | 351° |
| 2026-05-07 19:28 | 54.49902 | 8.74045 | 1980 ft | 183 kts | 351° |
| 2026-05-07 19:28 | 54.51155 | 8.73610 | 1978 ft | 184 kts | 351° |
| 2026-05-07 19:29 | 54.52406 | 8.73185 | 1976 ft | 183 kts | 351° |
| 2026-05-07 19:29 | 54.53651 | 8.72753 | 1976 ft | 182 kts | 351° |
| 2026-05-07 19:29 | 54.54878 | 8.72324 | 1978 ft | 182 kts | 351° |
| 2026-05-07 19:29 | 54.56135 | 8.71890 | 1978 ft | 182 kts | 351° |
| 2026-05-07 19:30 | 54.57363 | 8.71475 | 1976 ft | 182 kts | 351° |
| 2026-05-07 19:30 | 54.58602 | 8.71054 | 1976 ft | 181 kts | 351° |
| 2026-05-07 19:30 | 54.59844 | 8.70689 | 1975 ft | 181 kts | 359° |
| 2026-05-07 19:30 | 54.61101 | 8.70501 | 1971 ft | 184 kts | 345° |
| 2026-05-07 19:31 | 54.62112 | 8.69200 | 1952 ft | 186 kts | 302° |
| 2026-05-07 19:31 | 54.62625 | 8.67167 | 1966 ft | 185 kts | 290° |
| 2026-05-07 19:31 | 54.63119 | 8.65119 | 1970 ft | 185 kts | 292° |
| 2026-05-07 19:31 | 54.63644 | 8.63093 | 1975 ft | 186 kts | 295° |
| 2026-05-07 19:32 | 54.64172 | 8.61061 | 1975 ft | 185 kts | 295° |
| 2026-05-07 19:32 | 54.64693 | 8.59044 | 1978 ft | 183 kts | 295° |
| 2026-05-07 19:32 | 54.65216 | 8.57028 | 1977 ft | 184 kts | 295° |
| 2026-05-07 19:32 | 54.65738 | 8.55010 | 1979 ft | 184 kts | 295° |
| 2026-05-07 19:33 | 54.66257 | 8.52994 | 1977 ft | 183 kts | 294° |
| 2026-05-07 19:33 | 54.66769 | 8.51006 | 1978 ft | 183 kts | 295° |
| 2026-05-07 19:33 | 54.67290 | 8.48993 | 1978 ft | 184 kts | 294° |
| 2026-05-07 19:33 | 54.67811 | 8.46975 | 1976 ft | 184 kts | 295° |
| 2026-05-07 19:34 | 54.68330 | 8.44959 | 1976 ft | 183 kts | 295° |
| 2026-05-07 19:34 | 54.68850 | 8.42942 | 1980 ft | 184 kts | 294° |
| 2026-05-07 19:34 | 54.69371 | 8.40914 | 1983 ft | 185 kts | 294° |
| 2026-05-07 19:34 | 54.69895 | 8.38878 | 1981 ft | 185 kts | 295° |
| 2026-05-07 19:35 | 54.70415 | 8.36849 | 1982 ft | 184 kts | 295° |
| 2026-05-07 19:35 | 54.70934 | 8.34822 | 1980 ft | 184 kts | 295° |
| 2026-05-07 19:35 | 54.71455 | 8.32792 | 1980 ft | 184 kts | 294° |
| 2026-05-07 19:35 | 54.71972 | 8.30763 | 1980 ft | 184 kts | 295° |
| 2026-05-07 19:36 | 54.72490 | 8.28742 | 1980 ft | 184 kts | 295° |
| 2026-05-07 19:36 | 54.73019 | 8.26724 | 1980 ft | 184 kts | 298° |
| 2026-05-07 19:36 | 54.73863 | 8.25082 | 1976 ft | 184 kts | 325° |
| 2026-05-07 19:36 | 54.74999 | 8.24102 | 1977 ft | 182 kts | 342° |
| 2026-05-07 19:37 | 54.76187 | 8.23353 | 1979 ft | 182 kts | 341° |
| 2026-05-07 19:37 | 54.77359 | 8.22543 | 1979 ft | 182 kts | 340° |
| 2026-05-07 19:37 | 54.78529 | 8.21710 | 1981 ft | 182 kts | 339° |
| 2026-05-07 19:37 | 54.79722 | 8.21036 | 1975 ft | 179 kts | 358° |
| 2026-05-07 19:38 | 54.80861 | 8.21657 | 1969 ft | 173 kts | 41° |
| 2026-05-07 19:38 | 54.81410 | 8.23396 | 1965 ft | 169 kts | 84° |
| 2026-05-07 19:38 | 54.81261 | 8.25409 | 1968 ft | 168 kts | 113° |
| 2026-05-07 19:38 | 54.80586 | 8.27046 | 1971 ft | 168 kts | 131° |
| 2026-05-07 19:39 | 54.79761 | 8.28431 | 1970 ft | 169 kts | 149° |
| 2026-05-07 19:39 | 54.78613 | 8.28782 | 1972 ft | 172 kts | 180° |
| 2026-05-07 19:39 | 54.77416 | 8.28647 | 1974 ft | 173 kts | 181° |
| 2026-05-07 19:39 | 54.76214 | 8.28509 | 1979 ft | 174 kts | 181° |
| 2026-05-07 19:40 | 54.75011 | 8.28369 | 1979 ft | 173 kts | 180° |
| 2026-05-07 19:40 | 54.73850 | 8.28782 | 1940 ft | 171 kts | 149° |
| 2026-05-07 19:40 | 54.73114 | 8.30323 | 1911 ft | 170 kts | 105° |
| 2026-05-07 19:40 | 54.73345 | 8.32276 | 1836 ft | 175 kts | 53° |
| 2026-05-07 19:41 | 54.74439 | 8.33130 | 1779 ft | 182 kts | 0° |
| 2026-05-07 19:41 | 54.75567 | 8.32170 | 1494 ft | 180 kts | 313° |
| 2026-05-07 19:41 | 54.76336 | 8.30700 | 1184 ft | 143 kts | 332° |
| 2026-05-07 19:41 | 54.77228 | 8.30449 | 1048 ft | 137 kts | 9° |
| 2026-05-07 19:42 | 54.78157 | 8.30703 | 986 ft | 133 kts | 12° |
| 2026-05-07 19:42 | 54.79059 | 8.30936 | 968 ft | 128 kts | 10° |
| 2026-05-07 19:42 | 54.79946 | 8.31122 | 925 ft | 130 kts | 8° |
| 2026-05-07 19:42 | 54.80832 | 8.31243 | 927 ft | 127 kts | 6° |
| 2026-05-07 19:43 | 54.81719 | 8.31285 | 941 ft | 126 kts | 4° |
| 2026-05-07 19:43 | 54.82590 | 8.31301 | 957 ft | 124 kts | 4° |
| 2026-05-07 19:43 | 54.83454 | 8.31323 | 993 ft | 124 kts | 2° |
| 2026-05-07 19:43 | 54.84319 | 8.31311 | 963 ft | 126 kts | 8° |
| 2026-05-07 19:44 | 54.85094 | 8.31901 | 943 ft | 125 kts | 48° |
| 2026-05-07 19:44 | 54.85448 | 8.33263 | 1002 ft | 125 kts | 76° |
| 2026-05-07 19:44 | 54.85658 | 8.34720 | 1001 ft | 122 kts | 75° |
| 2026-05-07 19:44 | 54.85885 | 8.36066 | 1003 ft | 112 kts | 71° |
| 2026-05-07 19:45 | 54.86150 | 8.37323 | 960 ft | 110 kts | 63° |
| 2026-05-07 19:45 | 54.86746 | 8.38132 | 912 ft | 116 kts | 9° |
| 2026-05-07 19:45 | 54.87568 | 8.37967 | 878 ft | 119 kts | 351° |
| 2026-05-07 19:45 | 54.88330 | 8.37527 | 717 ft | 106 kts | 336° |
| 2026-05-07 19:46 | 54.88940 | 8.36954 | 513 ft | 98 kts | 328° |
| 2026-05-07 19:46 | 54.89503 | 8.36279 | 372 ft | 100 kts | 326° |
| 2026-05-07 19:46 | 54.90062 | 8.35603 | 167 ft | 94 kts | 326° |
| 2026-05-07 19:46 | 54.90579 | 8.34970 | 43 ft | 85 kts | 326° |
| 2026-05-07 19:47 | 54.90965 | 8.34493 | 31 ft | 53 kts | 324° |
| 2026-05-07 19:47 | 54.91228 | 8.34165 | 31 ft | 35 kts | 324° |
| 2026-05-07 19:47 | 54.91302 | 8.33984 | 30 ft | 18 kts | 241° |
| 2026-05-07 19:47 | 54.91221 | 8.33742 | 27 ft | 27 kts | 238° |
| 2026-05-07 19:48 | 54.91117 | 8.33438 | 27 ft | 31 kts | 239° |
| 2026-05-07 19:48 | 54.91020 | 8.33150 | 28 ft | 22 kts | 238° |
| 2026-05-07 19:48 | 54.91026 | 8.32976 | 27 ft | 8 kts | 313° |
| 2026-05-07 19:48 | 54.91063 | 8.32901 | 25 ft | 11 kts | 311° |
| 2026-05-07 19:49 | 54.91107 | 8.32815 | 23 ft | 12 kts | 312° |
| 2026-05-07 19:49 | 54.91156 | 8.32719 | 22 ft | 10 kts | 301° |
| 2026-05-07 19:49 | 54.91131 | 8.32631 | 22 ft | 4 kts | 226° |
| 2026-05-07 19:49 | 54.91119 | 8.32636 | 22 ft | 0 kts | 80° |